Time;durP1;ratioP1;P1;durP2;ratioP2;P2;SDS_P1;SDS_P2;PMS_P1;PMS_P2;Temp;Humidity;BMP_temperature;BMP_pressure;BME280_temperature;BME280_humidity;BME280_pressure;Samples;Min_cycle;Max_cycle;Signal;HPM_P1;HPM_P2
2022/09/28 00:02:01;;;;;;;2.58;0.50;;;11.70;80.80;;;;;;5017809;28;20386;-61
2022/09/28 00:04:26;;;;;;;2.92;0.50;;;11.70;80.70;;;;;;5014153;28;20044;-61
2022/09/28 00:06:52;;;;;;;3.17;0.60;;;11.70;80.60;;;;;;5018882;28;20034;-61
2022/09/28 00:09:17;;;;;;;0.90;0.40;;;11.70;80.70;;;;;;5018795;28;20030;-62
2022/09/28 00:11:44;;;;;;;2.70;0.60;;;11.70;80.80;;;;;;5016922;28;20502;-61
2022/09/28 00:14:11;;;;;;;1.48;0.52;;;11.70;80.70;;;;;;5018725;28;20418;-61
2022/09/28 00:16:42;;;;;;;0.95;0.50;;;11.70;80.80;;;;;;5017918;28;20045;-62
2022/09/28 00:19:09;;;;;;;2.78;0.50;;;11.70;80.80;;;;;;5016295;28;20084;-60
2022/09/28 00:21:37;;;;;;;1.75;0.60;;;11.80;80.70;;;;;;5017468;28;20048;-61
2022/09/28 00:24:20;;;;;;;2.97;0.80;;;11.80;80.60;;;;;;5018572;28;20030;-61
2022/09/28 00:26:48;;;;;;;1.77;0.57;;;11.80;80.60;;;;;;5017388;28;20043;-61
2022/09/28 00:29:27;;;;;;;2.78;0.60;;;11.80;80.60;;;;;;5017692;28;20123;-60
2022/09/28 00:32:01;;;;;;;1.77;0.63;;;11.80;80.60;;;;;;5016409;28;20712;-60
2022/09/28 00:34:30;;;;;;;1.20;0.50;;;11.80;80.60;;;;;;5016631;28;20045;-62
2022/09/28 00:36:56;;;;;;;3.30;0.60;;;11.80;80.60;;;;;;5013451;28;20054;-60
2022/09/28 00:39:22;;;;;;;2.78;0.50;;;11.80;80.60;;;;;;5017916;28;20029;-60
2022/09/28 00:41:47;;;;;;;4.32;0.80;;;11.80;80.60;;;;;;5013377;28;20499;-61
2022/09/28 00:44:25;;;;;;;2.55;0.80;;;11.80;80.50;;;;;;5014978;28;20080;-60
2022/09/28 00:47:11;;;;;;;3.63;0.70;;;11.80;80.60;;;;;;5008805;28;20030;-61
2022/09/28 00:50:06;;;;;;;2.08;0.60;;;11.80;80.60;;;;;;5013537;28;20049;-62
2022/09/28 00:52:37;;;;;;;2.08;0.50;;;11.90;80.60;;;;;;5015974;28;20044;-61
2022/09/28 00:55:07;;;;;;;1.00;0.60;;;11.90;80.50;;;;;;5015577;28;20099;-61
2022/09/28 00:57:33;;;;;;;2.83;0.68;;;11.90;80.50;;;;;;5016320;28;20060;-61
2022/09/28 01:00:00;;;;;;;1.13;0.50;;;11.90;80.50;;;;;;5015209;28;20124;-61
2022/09/28 01:02:26;;;;;;;1.73;0.55;;;11.90;80.60;;;;;;5019965;28;20030;-62
2022/09/28 01:04:52;;;;;;;1.08;0.50;;;11.90;80.50;;;;;;5012745;28;20406;-62
2022/09/28 01:07:18;;;;;;;2.15;0.57;;;11.90;80.60;;;;;;5016655;28;20611;-62
2022/09/28 01:09:44;;;;;;;2.30;0.50;;;11.90;80.60;;;;;;5016145;28;20052;-61
2022/09/28 01:12:10;;;;;;;1.45;0.50;;;11.80;80.60;;;;;;5015735;28;20132;-60
2022/09/28 01:14:37;;;;;;;2.92;0.70;;;11.90;80.60;;;;;;5015459;28;20754;-61
2022/09/28 01:17:21;;;;;;;2.67;0.60;;;11.90;80.70;;;;;;5015320;28;20025;-61
2022/09/28 01:20:25;;;;;;;1.65;0.47;;;11.90;80.80;;;;;;5015677;28;20217;-62
2022/09/28 01:23:03;;;;;;;2.40;0.70;;;11.90;80.70;;;;;;5017323;28;20505;-61
2022/09/28 01:26:16;;;;;;;1.52;0.60;;;11.90;80.60;;;;;;5017033;28;20030;-62
2022/09/28 01:28:44;;;;;;;2.50;0.63;;;11.90;80.70;;;;;;5015647;28;20050;-61
2022/09/28 01:31:12;;;;;;;2.10;0.60;;;11.90;80.40;;;;;;5014425;28;20045;-59
2022/09/28 01:33:49;;;;;;;1.58;0.60;;;11.90;80.50;;;;;;5014296;28;20091;-60
2022/09/28 01:36:24;;;;;;;2.00;0.60;;;11.90;81.40;;;;;;5015258;28;20045;-60
2022/09/28 01:38:58;;;;;;;3.30;0.50;;;11.90;80.40;;;;;;5013892;28;20143;-61
2022/09/28 01:41:28;;;;;;;4.90;0.82;;;11.90;80.40;;;;;;5014892;28;20054;-62
2022/09/28 01:43:56;;;;;;;2.63;0.60;;;11.90;80.40;;;;;;5014413;28;20041;-62
2022/09/28 01:46:27;;;;;;;3.67;0.50;;;11.90;80.40;;;;;;5014464;28;20516;-61
2022/09/28 01:48:57;;;;;;;1.95;0.60;;;11.90;80.50;;;;;;5013866;28;20029;-60
2022/09/28 01:51:32;;;;;;;2.03;0.47;;;11.90;80.50;;;;;;5012366;28;20406;-62
2022/09/28 01:54:05;;;;;;;2.25;0.63;;;11.90;80.50;;;;;;5013336;28;20730;-62
2022/09/28 01:56:40;;;;;;;1.92;0.50;;;11.90;80.30;;;;;;5015187;28;20125;-61
2022/09/28 01:59:12;;;;;;;1.88;0.60;;;11.90;80.20;;;;;;5014952;28;20062;-60
2022/09/28 02:01:43;;;;;;;5.30;0.65;;;11.90;80.20;;;;;;5013699;28;20036;-61
2022/09/28 02:04:16;;;;;;;1.27;0.70;;;11.90;80.10;;;;;;5014524;28;20033;-60
2022/09/28 02:06:51;;;;;;;2.20;0.55;;;11.90;80.10;;;;;;5013479;28;20627;-60
2022/09/28 02:09:27;;;;;;;1.38;0.57;;;11.90;80.10;;;;;;5014408;28;20121;-60
2022/09/28 02:12:00;;;;;;;2.88;0.50;;;11.90;80.10;;;;;;5012681;28;20038;-59
2022/09/28 02:14:28;;;;;;;1.80;0.50;;;11.90;80.00;;;;;;5015200;28;20083;-62
2022/09/28 02:16:55;;;;;;;1.33;0.65;;;11.90;79.90;;;;;;5015175;28;20044;-62
2022/09/28 02:19:24;;;;;;;1.80;0.68;;;11.90;79.80;;;;;;5014756;28;20076;-61
2022/09/28 02:21:59;;;;;;;1.77;0.63;;;11.90;79.70;;;;;;5016688;28;20045;-61
2022/09/28 02:24:41;;;;;;;1.60;0.68;;;11.90;79.60;;;;;;5017564;28;20664;-59
2022/09/28 02:27:25;;;;;;;1.80;0.43;;;11.90;79.40;;;;;;5016810;28;20140;-59
2022/09/28 02:29:51;;;;;;;1.90;0.50;;;12.00;79.40;;;;;;5020599;28;20042;-60
2022/09/28 02:32:19;;;;;;;0.90;0.50;;;12.00;79.20;;;;;;5020231;28;20540;-61
2022/09/28 02:34:44;;;;;;;1.73;0.70;;;12.00;79.20;;;;;;5018451;28;20041;-59
2022/09/28 02:37:10;;;;;;;2.58;0.50;;;12.00;79.00;;;;;;5017921;28;20045;-61
2022/09/28 02:39:36;;;;;;;1.58;0.40;;;12.00;78.60;;;;;;5019274;28;20030;-61
2022/09/28 02:42:25;;;;;;;49.50;28.08;;;12.00;78.50;;;;;;5018865;28;20030;-61
2022/09/28 02:45:18;;;;;;;3.97;2.80;;;12.00;78.20;;;;;;5017459;28;20057;-61
2022/09/28 02:48:01;;;;;;;2.55;1.08;;;12.00;78.20;;;;;;5018064;28;20351;-60
2022/09/28 02:51:00;;;;;;;1.23;0.70;;;12.10;78.20;;;;;;5020223;28;20034;-61
2022/09/28 02:53:40;;;;;;;1.33;0.60;;;12.10;78.00;;;;;;5015823;28;20038;-61
2022/09/28 02:56:08;;;;;;;4.18;0.50;;;12.10;77.70;;;;;;5018451;28;20049;-61
2022/09/28 02:59:06;;;;;;;1.08;0.70;;;12.10;77.80;;;;;;5017432;28;20026;-60
2022/09/28 03:01:46;;;;;;;1.58;0.77;;;12.10;77.70;;;;;;4947705;28;20554;-61
2022/09/28 03:04:35;;;;;;;1.50;0.60;;;12.10;77.60;;;;;;5014988;28;20045;-61
2022/09/28 03:07:07;;;;;;;1.70;1.00;;;12.10;77.40;;;;;;5019481;28;20044;-61
2022/09/28 03:09:41;;;;;;;1.58;0.82;;;12.20;77.60;;;;;;5017308;28;20087;-62
2022/09/28 03:12:11;;;;;;;1.93;1.13;;;12.20;77.50;;;;;;5017596;28;20120;-60
2022/09/28 03:14:37;;;;;;;1.30;0.38;;;12.20;77.40;;;;;;5016562;28;20419;-61
2022/09/28 03:17:03;;;;;;;0.75;0.30;;;12.10;77.60;;;;;;5015872;28;20516;-60
2022/09/28 03:19:33;;;;;;;1.00;0.45;;;12.10;77.70;;;;;;5017640;28;20064;-62
2022/09/28 03:21:59;;;;;;;2.25;0.52;;;12.10;77.80;;;;;;5016486;28;20057;-61
2022/09/28 03:24:24;;;;;;;1.38;0.40;;;12.20;77.80;;;;;;5016525;28;20397;-60
2022/09/28 03:26:50;;;;;;;0.45;0.30;;;12.10;77.90;;;;;;5016557;28;20030;-60
2022/09/28 03:29:16;;;;;;;1.75;0.20;;;12.20;78.00;;;;;;5016129;28;20150;-61
2022/09/28 03:31:42;;;;;;;2.92;0.52;;;12.10;78.00;;;;;;5017378;28;20048;-60
2022/09/28 03:34:08;;;;;;;1.38;0.43;;;12.10;78.20;;;;;;5017877;28;20033;-61
2022/09/28 03:36:34;;;;;;;1.17;0.38;;;12.10;78.20;;;;;;5016649;28;20041;-60
2022/09/28 03:38:59;;;;;;;0.77;0.40;;;12.10;78.30;;;;;;5017087;28;20065;-60
2022/09/28 03:41:28;;;;;;;0.70;0.60;;;12.10;78.60;;;;;;5015682;28;20087;-61
2022/09/28 03:43:54;;;;;;;1.83;1.23;;;12.10;78.90;;;;;;5018427;28;20098;-61
2022/09/28 03:46:20;;;;;;;3.35;2.38;;;12.00;79.10;;;;;;5001721;28;20046;-60
2022/09/28 03:48:46;;;;;;;0.95;0.85;;;12.00;79.30;;;;;;5016908;28;20045;-61
2022/09/28 03:51:12;;;;;;;0.98;0.60;;;12.00;79.40;;;;;;5014229;28;20042;-62
2022/09/28 03:53:38;;;;;;;2.47;0.70;;;12.00;79.60;;;;;;5018078;28;20048;-62
2022/09/28 03:56:12;;;;;;;2.65;1.13;;;12.00;80.00;;;;;;5017003;28;20042;-61
2022/09/28 03:58:38;;;;;;;3.33;1.13;;;11.90;80.00;;;;;;5003592;28;20492;-61
2022/09/28 04:01:11;;;;;;;1.83;0.70;;;11.90;80.10;;;;;;5010295;28;20033;-61
2022/09/28 04:03:37;;;;;;;0.50;0.30;;;11.90;80.30;;;;;;5017245;28;20282;-61
2022/09/28 04:06:03;;;;;;;1.45;1.35;;;11.90;80.30;;;;;;5012541;28;20038;-61
2022/09/28 04:08:29;;;;;;;3.08;2.47;;;11.80;80.50;;;;;;5018442;28;20608;-60
2022/09/28 04:10:58;;;;;;;0.98;0.70;;;11.80;80.60;;;;;;5016409;28;21298;-60
2022/09/28 04:13:24;;;;;;;1.38;0.60;;;11.80;80.80;;;;;;5017199;28;20064;-60
2022/09/28 04:15:54;;;;;;;0.88;0.55;;;11.80;80.80;;;;;;5015173;28;20394;-60
2022/09/28 04:18:20;;;;;;;1.02;0.82;;;11.80;80.90;;;;;;5017796;28;20106;-59
2022/09/28 04:20:47;;;;;;;0.47;0.30;;;11.70;80.90;;;;;;5016925;28;20041;-61
2022/09/28 04:23:15;;;;;;;0.68;0.30;;;11.80;81.10;;;;;;5017575;28;20473;-61
2022/09/28 04:25:45;;;;;;;2.00;0.45;;;11.80;81.20;;;;;;5019131;28;20103;-61
2022/09/28 04:30:55;;;;;;;0.65;0.20;;;11.70;81.20;;;;;;5012976;28;20096;-60
2022/09/28 04:33:21;;;;;;;0.47;0.40;;;11.70;81.30;;;;;;5016949;28;20037;-61
2022/09/28 04:35:47;;;;;;;0.60;0.35;;;11.70;81.40;;;;;;5018600;28;20045;-61
2022/09/28 04:38:12;;;;;;;0.98;0.30;;;11.70;81.50;;;;;;5017474;28;20382;-61
2022/09/28 04:40:38;;;;;;;0.85;0.40;;;11.70;81.70;;;;;;5017808;28;20048;-61
2022/09/28 04:43:03;;;;;;;2.28;0.40;;;11.70;81.80;;;;;;5016576;28;20040;-62
2022/09/28 04:45:29;;;;;;;0.93;0.40;;;11.70;81.90;;;;;;5019022;28;20084;-62
2022/09/28 04:47:54;;;;;;;1.42;0.50;;;11.70;81.90;;;;;;5017613;28;20327;-61
2022/09/28 04:50:20;;;;;;;3.28;0.50;;;11.60;81.80;;;;;;5017159;28;20131;-61
2022/09/28 04:52:46;;;;;;;1.10;0.43;;;11.60;82.00;;;;;;5016380;28;20446;-61
2022/09/28 04:55:12;;;;;;;1.55;0.30;;;11.60;82.20;;;;;;5017486;28;20045;-62
2022/09/28 04:57:38;;;;;;;0.80;0.43;;;11.60;82.40;;;;;;5016472;28;20029;-62
2022/09/28 05:00:05;;;;;;;0.70;0.38;;;11.50;82.50;;;;;;5018070;28;20030;-61
2022/09/28 05:02:31;;;;;;;1.08;0.50;;;11.50;82.70;;;;;;5016407;28;20431;-60
2022/09/28 05:04:57;;;;;;;3.10;0.50;;;11.50;82.80;;;;;;5017552;28;20038;-60
2022/09/28 05:07:24;;;;;;;0.70;0.45;;;11.40;82.90;;;;;;5016344;28;20061;-62
2022/09/28 05:09:49;;;;;;;2.60;0.50;;;11.40;83.10;;;;;;5015280;28;20065;-61
2022/09/28 05:12:15;;;;;;;1.33;0.50;;;11.40;83.10;;;;;;5014713;28;20175;-60
2022/09/28 05:14:40;;;;;;;0.85;0.50;;;11.30;83.40;;;;;;5016522;28;20065;-61
2022/09/28 05:17:06;;;;;;;1.33;0.70;;;11.30;83.30;;;;;;5016253;28;20493;-61
2022/09/28 05:19:33;;;;;;;1.70;0.50;;;11.30;83.60;;;;;;5016130;28;20029;-62
2022/09/28 05:22:03;;;;;;;2.05;0.50;;;11.30;83.80;;;;;;5017241;28;20068;-62
2022/09/28 05:24:29;;;;;;;2.60;0.40;;;11.30;83.80;;;;;;5017374;28;20523;-59
2022/09/28 05:26:54;;;;;;;2.45;0.50;;;11.30;83.80;;;;;;5017368;28;20041;-60
2022/09/28 05:29:20;;;;;;;2.65;0.40;;;11.30;84.00;;;;;;5016563;28;20412;-60
2022/09/28 05:31:46;;;;;;;1.48;0.60;;;11.30;84.00;;;;;;5016800;28;20124;-61
2022/09/28 05:34:11;;;;;;;2.10;0.55;;;11.30;84.10;;;;;;5015214;28;20041;-60
2022/09/28 05:36:38;;;;;;;0.75;0.50;;;11.30;84.20;;;;;;5014753;28;20571;-60
2022/09/28 05:39:04;;;;;;;2.53;0.80;;;11.30;84.40;;;;;;5016881;28;20055;-61
2022/09/28 05:41:30;;;;;;;1.90;0.75;;;11.30;84.30;;;;;;5017841;28;20114;-59
2022/09/28 05:43:56;;;;;;;3.35;0.80;;;11.30;84.30;;;;;;5016391;28;20104;-61
2022/09/28 05:46:22;;;;;;;1.75;0.70;;;11.30;84.30;;;;;;5016841;28;20077;-58
2022/09/28 05:48:50;;;;;;;1.48;0.60;;;11.30;84.40;;;;;;5015226;28;20038;-61
2022/09/28 05:51:15;;;;;;;1.27;0.50;;;11.30;84.50;;;;;;5016181;28;20073;-61
2022/09/28 05:53:41;;;;;;;1.98;0.47;;;11.30;84.50;;;;;;5016048;28;20107;-61
2022/09/28 05:56:06;;;;;;;2.20;0.50;;;11.30;84.50;;;;;;5016719;28;20328;-60
2022/09/28 05:58:32;;;;;;;1.10;0.47;;;11.30;84.60;;;;;;5015505;28;20132;-60
2022/09/28 06:00:58;;;;;;;1.70;0.60;;;11.40;85.50;;;;;;5017206;28;20484;-60
2022/09/28 06:03:24;;;;;;;1.67;0.55;;;11.40;84.80;;;;;;5016783;28;20034;-60
2022/09/28 06:05:50;;;;;;;0.90;0.55;;;11.40;84.80;;;;;;5017725;28;20037;-61
2022/09/28 06:08:15;;;;;;;2.55;0.50;;;11.40;84.90;;;;;;5015927;28;20041;-61
2022/09/28 06:10:41;;;;;;;0.52;0.43;;;11.40;85.00;;;;;;5016014;28;20069;-60
2022/09/28 06:13:09;;;;;;;0.77;0.50;;;11.40;85.00;;;;;;5015245;28;20041;-61
2022/09/28 06:15:35;;;;;;;1.23;0.50;;;11.50;84.90;;;;;;4997207;28;20111;-60
2022/09/28 06:18:13;;;;;;;0.98;0.47;;;11.40;84.80;;;;;;5016310;28;20041;-61
2022/09/28 06:20:40;;;;;;;0.70;0.57;;;11.50;85.30;;;;;;5015480;28;20030;-62
2022/09/28 06:23:06;;;;;;;1.10;0.52;;;11.50;85.10;;;;;;5014899;28;20491;-62
2022/09/28 06:25:32;;;;;;;1.30;0.77;;;11.50;85.20;;;;;;5016331;28;20084;-62
2022/09/28 06:28:06;;;;;;;0.70;0.52;;;11.50;85.20;;;;;;5016516;28;20037;-62
2022/09/28 06:30:36;;;;;;;0.80;0.50;;;11.50;85.40;;;;;;5015637;28;20061;-62
2022/09/28 06:33:03;;;;;;;0.50;0.30;;;11.50;85.30;;;;;;5015683;28;20052;-62
2022/09/28 06:35:29;;;;;;;3.25;0.80;;;11.50;85.30;;;;;;5014784;28;20444;-61
2022/09/28 06:37:56;;;;;;;1.00;0.40;;;11.50;85.50;;;;;;5015132;28;20096;-60
2022/09/28 06:40:23;;;;;;;0.93;0.30;;;11.50;85.40;;;;;;5014905;28;20029;-60
2022/09/28 06:43:00;;;;;;;0.68;0.40;;;11.50;85.40;;;;;;5015003;28;20033;-59
2022/09/28 06:45:27;;;;;;;0.55;0.20;;;11.50;85.90;;;;;;5016646;28;20157;-61
2022/09/28 06:47:57;;;;;;;0.40;0.40;;;11.50;85.70;;;;;;5015722;28;20042;-61
2022/09/28 06:50:25;;;;;;;2.58;1.50;;;11.50;85.90;;;;;;5016135;28;20049;-60
2022/09/28 06:52:54;;;;;;;3.53;0.30;;;11.50;85.90;;;;;;5015013;28;20045;-60
2022/09/28 06:55:20;;;;;;;0.47;0.20;;;11.50;86.10;;;;;;5014405;28;20515;-60
2022/09/28 06:57:47;;;;;;;1.00;0.38;;;11.60;86.10;;;;;;5016541;28;20123;-60
2022/09/28 07:00:13;;;;;;;0.55;0.30;;;11.60;86.00;;;;;;5014225;28;20041;-61
2022/09/28 07:02:39;;;;;;;0.80;0.20;;;11.60;86.20;;;;;;5015267;28;20396;-60
2022/09/28 07:05:06;;;;;;;0.25;0.10;;;11.60;86.40;;;;;;5016448;28;20026;-62
2022/09/28 07:07:32;;;;;;;0.22;0.20;;;11.60;86.40;;;;;;5015499;28;20041;-61
2022/09/28 07:09:58;;;;;;;0.30;0.20;;;11.60;86.30;;;;;;5014607;28;20075;-61
2022/09/28 07:12:24;;;;;;;0.20;0.15;;;11.60;86.30;;;;;;5015219;28;20394;-61
2022/09/28 07:14:55;;;;;;;0.93;0.20;;;11.60;86.40;;;;;;5019659;28;20048;-62
2022/09/28 07:17:21;;;;;;;1.00;0.20;;;11.60;86.40;;;;;;5017985;28;20390;-60
2022/09/28 07:19:51;;;;;;;0.30;0.30;;;11.70;86.60;;;;;;5019476;28;20378;-62
2022/09/28 07:22:19;;;;;;;0.40;0.40;;;11.70;86.60;;;;;;5018786;28;20041;-62
2022/09/28 07:24:47;;;;;;;0.55;0.40;;;11.70;86.60;;;;;;5019667;28;20041;-63
2022/09/28 07:27:12;;;;;;;0.32;0.28;;;11.70;87.00;;;;;;5017011;28;20085;-62
2022/09/28 07:29:38;;;;;;;0.45;0.17;;;11.60;87.10;;;;;;5017862;28;20133;-62
2022/09/28 07:32:03;;;;;;;0.40;0.30;;;11.70;87.30;;;;;;5018703;28;20034;-61
2022/09/28 07:34:29;;;;;;;1.17;0.85;;;11.60;87.40;;;;;;5017610;28;20076;-61
2022/09/28 07:36:57;;;;;;;1.83;1.10;;;11.60;87.30;;;;;;5016569;28;20033;-60
2022/09/28 07:39:23;;;;;;;0.95;0.47;;;11.60;87.20;;;;;;5018061;28;20034;-61
2022/09/28 07:41:49;;;;;;;0.98;0.40;;;11.60;87.40;;;;;;5019272;28;20037;-61
2022/09/28 07:44:15;;;;;;;0.52;0.30;;;11.60;87.40;;;;;;5018389;28;20056;-61
2022/09/28 07:46:42;;;;;;;0.45;0.30;;;11.70;87.60;;;;;;5019248;28;20451;-61
2022/09/28 07:49:07;;;;;;;0.30;0.30;;;11.70;87.30;;;;;;5018140;28;20619;-59
2022/09/28 07:51:33;;;;;;;0.50;0.50;;;11.70;87.20;;;;;;5018238;28;20076;-60
2022/09/28 07:53:59;;;;;;;1.25;0.43;;;11.80;87.20;;;;;;5017857;28;20667;-59
2022/09/28 07:56:25;;;;;;;0.85;0.30;;;11.80;87.10;;;;;;5017893;28;20058;-59
2022/09/28 07:58:51;;;;;;;1.23;0.70;;;11.80;86.80;;;;;;5019279;28;20041;-60
2022/09/28 08:01:17;;;;;;;0.80;0.55;;;11.90;86.90;;;;;;5017612;28;20041;-61
2022/09/28 08:03:44;;;;;;;2.60;0.77;;;11.90;86.70;;;;;;5015301;28;20046;-60
2022/09/28 08:06:11;;;;;;;0.40;0.30;;;12.00;86.70;;;;;;5019500;28;20038;-59
2022/09/28 08:08:43;;;;;;;2.00;0.30;;;12.00;87.50;;;;;;5019123;28;20034;-60
2022/09/28 08:11:10;;;;;;;1.88;0.80;;;12.00;86.60;;;;;;5018408;28;20033;-59
2022/09/28 08:13:36;;;;;;;0.90;0.60;;;12.00;86.60;;;;;;5017455;28;21406;-60
2022/09/28 08:16:04;;;;;;;0.65;0.50;;;12.20;86.60;;;;;;5020058;28;20508;-59
2022/09/28 08:18:30;;;;;;;0.90;0.55;;;12.10;86.60;;;;;;5017995;28;20072;-59
2022/09/28 08:23:40;;;;;;;1.40;0.93;;;12.20;86.60;;;;;;5019637;28;20085;-59
2022/09/28 08:26:06;;;;;;;0.90;0.70;;;12.30;86.60;;;;;;5018627;28;20045;-61
2022/09/28 08:28:34;;;;;;;1.95;1.00;;;12.30;86.40;;;;;;5017568;28;20034;-59
2022/09/28 08:31:03;;;;;;;1.10;0.50;;;12.40;86.20;;;;;;5018816;28;20516;-59
2022/09/28 08:33:29;;;;;;;0.60;0.38;;;12.40;86.20;;;;;;5018205;28;20076;-57
2022/09/28 08:35:59;;;;;;;2.35;0.90;;;12.50;86.20;;;;;;5019984;28;20064;-59
2022/09/28 08:38:26;;;;;;;1.95;0.68;;;12.50;86.10;;;;;;5017632;28;20030;-59
2022/09/28 08:41:14;;;;;;;1.73;0.50;;;12.50;85.90;;;;;;5019186;28;20041;-61
2022/09/28 08:44:05;;;;;;;0.98;0.60;;;12.50;85.80;;;;;;5012594;28;20768;-61
2022/09/28 08:46:39;;;;;;;1.02;0.50;;;12.60;86.00;;;;;;5017691;28;20034;-58
2022/09/28 08:49:11;;;;;;;1.95;0.47;;;12.60;85.60;;;;;;5019131;28;20109;-60
2022/09/28 08:51:58;;;;;;;0.63;0.22;;;12.60;86.40;;;;;;5019493;28;20500;-60
2022/09/28 08:54:32;;;;;;;0.50;0.40;;;12.60;85.80;;;;;;5018511;28;20041;-62
2022/09/28 08:57:15;;;;;;;0.82;0.52;;;12.70;85.70;;;;;;5019569;28;20028;-61
2022/09/28 09:00:02;;;;;;;1.52;1.05;;;12.70;85.50;;;;;;5018701;28;20461;-59
2022/09/28 09:02:34;;;;;;;1.02;0.50;;;12.80;85.80;;;;;;5018962;28;20046;-61
2022/09/28 09:05:04;;;;;;;1.23;0.55;;;12.80;85.70;;;;;;5019006;28;20080;-60
2022/09/28 09:07:39;;;;;;;0.95;0.40;;;12.80;85.80;;;;;;5018703;28;20100;-59
2022/09/28 09:10:12;;;;;;;4.97;0.50;;;12.90;85.90;;;;;;5019702;28;20030;-61
2022/09/28 09:12:37;;;;;;;0.85;0.40;;;12.90;86.70;;;;;;5020494;28;20037;-59
2022/09/28 09:15:23;;;;;;;0.95;0.47;;;12.90;85.50;;;;;;5018234;28;20038;-59
2022/09/28 09:18:27;;;;;;;0.88;0.40;;;13.00;85.60;;;;;;5019005;28;20514;-60
2022/09/28 09:20:58;;;;;;;0.93;0.47;;;13.00;85.20;;;;;;5019686;28;20477;-61
2022/09/28 09:23:43;;;;;;;0.73;0.30;;;13.10;85.20;;;;;;5019612;28;20041;-61
2022/09/28 09:26:19;;;;;;;1.70;0.47;;;13.10;84.50;;;;;;5017643;28;20374;-61
2022/09/28 09:29:06;;;;;;;1.23;0.40;;;13.10;85.10;;;;;;5017859;28;20041;-60
2022/09/28 09:31:53;;;;;;;1.35;0.20;;;13.10;84.20;;;;;;5017454;28;20389;-59
2022/09/28 09:34:44;;;;;;;0.60;0.30;;;13.10;84.10;;;;;;5015742;28;20110;-61
2022/09/28 09:37:47;;;;;;;2.65;0.40;;;13.10;84.10;;;;;;5016777;28;20412;-60
2022/09/28 09:40:46;;;;;;;2.45;0.32;;;13.10;84.00;;;;;;5019225;28;20083;-59
2022/09/28 09:43:34;;;;;;;1.25;0.47;;;13.10;84.00;;;;;;5017509;28;20037;-61
2022/09/28 09:46:18;;;;;;;0.60;0.50;;;13.10;84.10;;;;;;5017874;28;20026;-60
2022/09/28 09:49:00;;;;;;;1.17;0.50;;;13.10;84.30;;;;;;5018400;28;20422;-59
2022/09/28 09:51:51;;;;;;;1.10;0.40;;;13.10;84.10;;;;;;5018695;28;20064;-61
2022/09/28 09:54:29;;;;;;;0.93;0.40;;;13.10;84.00;;;;;;5018559;28;20037;-59
2022/09/28 09:57:02;;;;;;;1.02;0.40;;;13.10;84.10;;;;;;5018133;28;20040;-59
2022/09/28 09:59:36;;;;;;;3.97;0.75;;;13.10;83.90;;;;;;5017197;28;20045;-60
2022/09/28 10:02:13;;;;;;;1.60;0.60;;;13.10;84.00;;;;;;5016870;28;20572;-61
2022/09/28 10:04:45;;;;;;;1.55;0.85;;;13.10;83.80;;;;;;5015849;28;20390;-58
2022/09/28 10:07:20;;;;;;;1.65;1.10;;;13.10;83.90;;;;;;5016730;28;20049;-60
2022/09/28 10:09:50;;;;;;;1.90;1.48;;;13.10;84.00;;;;;;5016876;28;20041;-59
2022/09/28 10:12:19;;;;;;;2.80;1.48;;;13.20;84.20;;;;;;5016450;28;20041;-61
2022/09/28 10:14:45;;;;;;;2.25;0.60;;;13.10;84.00;;;;;;5017245;28;20494;-61
2022/09/28 10:17:17;;;;;;;1.35;0.40;;;13.10;83.70;;;;;;5017383;28;20040;-58
2022/09/28 10:19:43;;;;;;;0.65;0.35;;;13.10;82.80;;;;;;5016053;28;20274;-62
2022/09/28 10:22:19;;;;;;;0.65;0.40;;;13.10;82.60;;;;;;5017239;28;20053;-60
2022/09/28 10:24:48;;;;;;;0.40;0.20;;;12.90;80.30;;;;;;5018334;28;20048;-60
2022/09/28 10:27:18;;;;;;;1.08;0.52;;;12.90;80.80;;;;;;5015579;28;20034;-61
2022/09/28 10:30:13;;;;;;;1.05;0.60;;;12.70;80.60;;;;;;5014954;28;20573;-60
2022/09/28 10:32:44;;;;;;;2.17;0.95;;;12.60;82.00;;;;;;5015497;28;20037;-60
2022/09/28 10:35:22;;;;;;;1.75;1.40;;;12.50;81.70;;;;;;5017242;28;20480;-61
2022/09/28 10:38:05;;;;;;;2.88;0.80;;;12.50;82.90;;;;;;5017745;28;20480;-59
2022/09/28 10:41:09;;;;;;;1.73;1.20;;;12.40;82.40;;;;;;5016172;28;20037;-60
2022/09/28 10:43:38;;;;;;;2.33;1.23;;;12.40;82.70;;;;;;5016385;28;20037;-59
2022/09/28 10:46:20;;;;;;;2.08;0.80;;;12.40;82.50;;;;;;5017693;28;20512;-61
2022/09/28 10:48:59;;;;;;;3.72;1.08;;;12.30;83.40;;;;;;5017287;28;20370;-61
2022/09/28 10:51:48;;;;;;;1.65;1.00;;;12.30;83.10;;;;;;5022754;28;20126;-62
2022/09/28 10:54:25;;;;;;;2.08;0.63;;;12.30;83.50;;;;;;5020957;28;20041;-61
2022/09/28 10:56:52;;;;;;;1.45;0.82;;;12.20;83.40;;;;;;5022322;28;20034;-61
2022/09/28 10:59:30;;;;;;;1.58;0.95;;;12.20;83.40;;;;;;5021207;28;20461;-62
2022/09/28 11:02:00;;;;;;;1.77;1.10;;;12.30;83.50;;;;;;5020798;28;20124;-62
2022/09/28 11:04:29;;;;;;;2.63;1.27;;;12.20;83.40;;;;;;5020951;28;20069;-61
2022/09/28 11:06:58;;;;;;;3.08;1.30;;;12.20;83.60;;;;;;5021125;28;20091;-61
2022/09/28 11:09:36;;;;;;;3.53;1.85;;;12.20;84.60;;;;;;5019684;28;20430;-61
2022/09/28 11:12:05;;;;;;;2.67;1.08;;;12.20;84.30;;;;;;5021720;28;20042;-61
2022/09/28 11:14:37;;;;;;;3.08;1.63;;;12.20;84.30;;;;;;5019733;28;20477;-62
2022/09/28 11:17:39;;;;;;;2.10;1.90;;;12.30;84.30;;;;;;5019893;28;20061;-60
2022/09/28 11:20:23;;;;;;;2.30;1.30;;;12.30;84.50;;;;;;5003380;28;20433;-60
2022/09/28 11:22:54;;;;;;;3.22;1.23;;;12.40;84.30;;;;;;5018205;28;20120;-60
2022/09/28 11:25:23;;;;;;;1.63;0.95;;;12.40;83.80;;;;;;5020671;28;20033;-60
2022/09/28 11:27:51;;;;;;;3.45;0.82;;;12.40;83.60;;;;;;5019042;28;20053;-61
2022/09/28 11:30:41;;;;;;;2.67;0.80;;;12.40;83.40;;;;;;5021617;28;20036;-59
2022/09/28 11:33:18;;;;;;;1.67;0.70;;;12.40;83.30;;;;;;5018178;28;20038;-59
2022/09/28 11:35:59;;;;;;;2.03;0.77;;;12.40;83.10;;;;;;5020808;28;20041;-59
2022/09/28 11:38:52;;;;;;;1.63;0.50;;;12.40;83.10;;;;;;5020044;28;20038;-60
2022/09/28 11:41:40;;;;;;;3.22;0.90;;;12.40;82.90;;;;;;5015893;28;20414;-59
2022/09/28 11:44:26;;;;;;;2.47;0.70;;;12.40;82.70;;;;;;5019567;28;20121;-57
2022/09/28 11:47:01;;;;;;;2.42;0.60;;;12.40;82.80;;;;;;5019557;28;20056;-61
2022/09/28 11:49:47;;;;;;;1.38;0.80;;;12.40;82.90;;;;;;5019697;28;20040;-60
2022/09/28 11:52:21;;;;;;;2.33;1.17;;;12.40;83.30;;;;;;5019170;28;20030;-59
2022/09/28 11:54:57;;;;;;;1.50;0.88;;;12.40;83.30;;;;;;5019650;28;20045;-60
2022/09/28 11:57:35;;;;;;;2.13;1.27;;;12.40;83.40;;;;;;5018504;28;20338;-59
2022/09/28 12:00:14;;;;;;;4.05;1.65;;;12.40;83.70;;;;;;5019573;28;20049;-61
2022/09/28 12:02:54;;;;;;;3.90;1.40;;;12.40;83.60;;;;;;5018855;28;20042;-59
2022/09/28 12:05:21;;;;;;;2.92;1.38;;;12.40;83.30;;;;;;5017822;28;20076;-60
2022/09/28 12:07:55;;;;;;;5.00;1.60;;;12.50;83.30;;;;;;5019239;28;20041;-59
2022/09/28 12:10:46;;;;;;;5.10;1.77;;;12.50;83.40;;;;;;5021046;28;20034;-59
2022/09/28 12:13:24;;;;;;;7.68;1.70;;;12.50;83.50;;;;;;5020231;28;20068;-59
2022/09/28 12:16:07;;;;;;;3.88;1.60;;;12.50;83.40;;;;;;5019195;28;20036;-60
2022/09/28 12:18:38;;;;;;;3.08;1.10;;;12.60;83.40;;;;;;5018865;28;20042;-59
2022/09/28 12:21:08;;;;;;;1.42;1.10;;;12.60;83.20;;;;;;5018804;28;20029;-59
2022/09/28 12:23:37;;;;;;;1.52;0.95;;;12.60;83.30;;;;;;5018911;28;20033;-61
2022/09/28 12:26:22;;;;;;;2.35;1.00;;;12.60;83.30;;;;;;5018649;28;20088;-60
2022/09/28 12:28:52;;;;;;;3.08;1.50;;;12.60;83.30;;;;;;5019986;28;20498;-59
2022/09/28 12:31:38;;;;;;;1.88;0.98;;;12.60;83.20;;;;;;5019827;28;20048;-61
2022/09/28 12:34:04;;;;;;;2.25;1.20;;;12.60;83.10;;;;;;5019259;28;20041;-61
2022/09/28 12:36:40;;;;;;;5.22;4.05;;;12.60;83.20;;;;;;5017023;28;20033;-59
2022/09/28 12:39:42;;;;;;;2.22;1.55;;;12.60;83.10;;;;;;5018431;28;20045;-56
2022/09/28 12:42:31;;;;;;;1.75;1.00;;;12.70;82.80;;;;;;5019260;28;20088;-59
2022/09/28 12:45:26;;;;;;;1.20;0.70;;;12.60;82.70;;;;;;5018135;28;20034;-60
2022/09/28 12:48:09;;;;;;;1.87;0.67;;;12.70;82.90;;;;;;5016275;28;20113;-60
2022/09/28 12:50:58;;;;;;;0.98;0.60;;;12.60;82.90;;;;;;5017700;28;20065;-60
2022/09/28 12:53:48;;;;;;;1.63;0.70;;;12.60;82.70;;;;;;5020199;28;20037;-58
2022/09/28 12:56:25;;;;;;;3.40;0.95;;;12.60;82.60;;;;;;5018401;28;20033;-59
2022/09/28 12:59:17;;;;;;;2.42;0.77;;;12.60;82.60;;;;;;5017421;28;20057;-58
2022/09/28 13:01:52;;;;;;;0.98;0.60;;;12.60;82.50;;;;;;5018617;28;20064;-60
2022/09/28 13:04:31;;;;;;;0.85;0.45;;;12.60;82.40;;;;;;5018308;28;20037;-59
2022/09/28 13:07:09;;;;;;;2.00;0.80;;;12.60;82.70;;;;;;5016862;28;20140;-61
2022/09/28 13:09:57;;;;;;;1.77;0.88;;;12.50;82.30;;;;;;5017717;28;20049;-59
2022/09/28 13:13:02;;;;;;;1.20;0.73;;;12.50;82.40;;;;;;5018319;28;20496;-59
2022/09/28 13:15:34;;;;;;;2.55;0.85;;;12.50;82.30;;;;;;5016181;28;20730;-59
2022/09/28 13:18:16;;;;;;;3.83;1.10;;;12.50;82.40;;;;;;5018141;28;20041;-59
2022/09/28 13:20:50;;;;;;;4.88;1.73;;;12.40;82.40;;;;;;5015511;28;20406;-60
2022/09/28 13:23:41;;;;;;;4.15;1.85;;;12.40;82.60;;;;;;5018261;28;20274;-59